Patriot — WDC2859 — position and weather

sailwx.info

Track history (hours):
 
Tides and Currents Weather Stations Pressure Air Temp Water Temp Dewpoint Dewpoint Depression Visibility Wind Speed Wind Dir Waves Ship Positions

Patriot

Owner: AMNAV Maritime Corporation, Oakland, CA. More information available from US FCC via Universal Licensing System and Coast Guard Vessel Documentation Center.

Last reported at 2015-Feb-27 14:33 UTC. Time now 2015-Feb-27 15:24 UTC.
Position N 37°49' W 122°19'.

Length 31 m; draft 4.6 m.

Type: Tug. MMSI: 366998680.

Date/timePositionNaut miles runAvg speedWind from/ knotsBaromVisibWave heightAir tempDewpointWater temp
2015-Feb-27 14:33N 37°49' W 122°19'0 0.0
2015-Feb-27 13:33N 37°49' W 122°19'3 2.8
2015-Feb-27 12:33N 37°48' W 122°21'3 2.8
2015-Feb-27 11:33N 37°49' W 122°19'0 0.0
2015-Feb-27 10:33N 37°49' W 122°19'0 0.0
2015-Feb-27 09:33N 37°49' W 122°19'0 0.0
2015-Feb-27 08:33N 37°49' W 122°19'0 0.0
2015-Feb-27 07:33N 37°49' W 122°19'2 1.9
2015-Feb-27 06:33N 37°49' W 122°21'6 6.2
2015-Feb-27 05:33N 37°55' W 122°22'0 0.2
2015-Feb-27 04:33N 37°55' W 122°22'1 1.4
2015-Feb-27 03:33N 37°54' W 122°23'1 1.4
2015-Feb-27 02:33N 37°55' W 122°22'1 0.9
2015-Feb-27 01:33N 37°54' W 122°22'3 2.7
2015-Feb-27 00:33N 37°53' W 122°25'6 6.1
2015-Feb-26 23:33N 37°49' W 122°19'1 0.5
2015-Feb-26 22:33N 37°49' W 122°19'0 0.0
2015-Feb-26 21:33N 37°49' W 122°19'0 0.0
2015-Feb-26 20:33N 37°49' W 122°19'0 0.0
2015-Feb-26 19:33N 37°49' W 122°19'0 0.0
2015-Feb-26 18:33N 37°49' W 122°19'0 0.0
2015-Feb-26 17:33N 37°49' W 122°19'0 0.0
2015-Feb-26 16:33N 37°49' W 122°19'0 0.0
2015-Feb-26 15:33N 37°49' W 122°19'0 0.4
2015-Feb-26 14:33N 37°49' W 122°19'2 2.0
2015-Feb-26 13:34N 37°48' W 122°17'4 4.2
2015-Feb-26 12:34N 37°47' W 122°23'3 3.4
2015-Feb-26 11:34N 37°49' W 122°19'0 0.4
2015-Feb-26 10:34N 37°49' W 122°19'0 0.0
2015-Feb-26 09:33N 37°49' W 122°19'0 0.0
2015-Feb-26 08:33N 37°49' W 122°19'0 0.0
2015-Feb-26 07:33N 37°49' W 122°19'0 0.0
2015-Feb-26 06:33N 37°49' W 122°19'0 0.0
2015-Feb-26 05:33N 37°49' W 122°19'0 0.0
2015-Feb-26 04:33N 37°49' W 122°19'0 0.3
2015-Feb-26 03:33N 37°49' W 122°19'6 6.0
2015-Feb-26 02:33N 37°54' W 122°23'0 0.3
2015-Feb-26 01:33N 37°54' W 122°22'1 0.8
2015-Feb-26 00:33N 37°54' W 122°23'0 0.0
2015-Feb-25 23:33N 37°55' W 122°23'3 3.4
2015-Feb-25 22:33N 37°51' W 122°23'5 5.2
2015-Feb-25 21:33N 37°48' W 122°18'1 0.7
2015-Feb-25 20:33N 37°48' W 122°19'2 1.6
2015-Feb-25 19:33N 37°49' W 122°19'0 0.0
2015-Feb-25 18:33N 37°49' W 122°19'0 0.0
2015-Feb-25 17:33N 37°49' W 122°19'0 0.0
2015-Feb-25 16:33N 37°49' W 122°19'0 0.0
2015-Feb-25 15:33N 37°49' W 122°19'0 0.2
2015-Feb-25 14:33N 37°49' W 122°19'1 1.4
2015-Feb-25 13:33N 37°49' W 122°20'1 1.3
2015-Feb-25 12:33N 37°49' W 122°19'0 0.3
2015-Feb-25 11:34N 37°49' W 122°19'0 0.0
2015-Feb-25 10:33N 37°49' W 122°19'0 0.0
2015-Feb-25 09:33N 37°49' W 122°19'0 0.0
2015-Feb-25 08:34N 37°49' W 122°19'0 0.0
2015-Feb-25 07:33N 37°49' W 122°19'0 0.0
2015-Feb-25 06:34N 37°49' W 122°19'0 0.0
2015-Feb-25 05:33N 37°49' W 122°19'0 0.0
2015-Feb-25 04:33N 37°49' W 122°19'0 0.0
2015-Feb-25 03:33N 37°49' W 122°19'0 0.0
2015-Feb-25 02:34N 37°49' W 122°19'0 0.0
2015-Feb-25 01:33N 37°49' W 122°19'0 0.0
2015-Feb-25 00:33N 37°49' W 122°19'0 0.0
2015-Feb-24 23:34N 37°49' W 122°19'2 1.8
2015-Feb-24 22:33N 37°48' W 122°20'2 2.0
2015-Feb-24 21:33N 37°48' W 122°18'2 2.5
2015-Feb-24 20:33N 37°48' W 122°21'2 2.2
2015-Feb-24 19:33N 37°49' W 122°19'0 0.0
2015-Feb-24 18:34N 37°49' W 122°19'0 0.0
2015-Feb-24 17:34N 37°49' W 122°19'0 0.0
2015-Feb-24 16:34N 37°49' W 122°19'0 0.0
2015-Feb-24 15:34N 37°49' W 122°19'0 0.0
2015-Feb-24 14:34N 37°49' W 122°19'0 0.0
2015-Feb-24 13:34N 37°49' W 122°19'0 0.0
2015-Feb-24 12:33N 37°49' W 122°19'0 0.0
2015-Feb-24 11:34N 37°49' W 122°19'0 0.0
2015-Feb-24 10:34N 37°49' W 122°19'0 0.0
2015-Feb-24 09:34N 37°49' W 122°19'0 0.0
2015-Feb-24 08:34N 37°49' W 122°19'0 0.0
2015-Feb-24 07:34N 37°49' W 122°19'0 0.0
2015-Feb-24 06:34N 37°49' W 122°19'0 0.0
2015-Feb-24 05:34N 37°49' W 122°19'0 0.0
2015-Feb-24 04:34N 37°49' W 122°19'0 0.0
2015-Feb-24 03:34N 37°49' W 122°19'0 0.0
2015-Feb-24 02:33N 37°49' W 122°19'0 0.0
2015-Feb-24 01:34N 37°49' W 122°19'0 0.0
2015-Feb-24 00:33N 37°49' W 122°19'0 0.0
2015-Feb-23 23:34N 37°49' W 122°19'0 0.0
2015-Feb-23 22:33N 37°49' W 122°19'7 6.9
2015-Feb-23 21:33N 37°54' W 122°25'3 2.5
2015-Feb-23 20:33N 37°55' W 122°22'1 0.6
2015-Feb-23 19:33N 37°54' W 122°22'3 2.8
2015-Feb-23 18:33N 37°54' W 122°25'2 1.7
2015-Feb-23 17:33N 37°54' W 122°23'2 2.3
2015-Feb-23 16:33N 37°56' W 122°26'10 9.8
2015-Feb-23 15:29N 38°03' W 122°16'  
2015-Feb-21 05:03N 38°02' W 122°08'13 8.4
2015-Feb-21 03:30N 38°02' W 121°52'2 1.8
2015-Feb-21 02:20N 38°03' W 121°54'11 5.7
2015-Feb-21 00:23N 38°02' W 122°08'0 0.0
2015-Feb-20 07:06N 38°02' W 122°08'4 2.7
2015-Feb-20 05:33N 38°04' W 122°13'9 8.7
2015-Feb-20 04:33N 38°01' W 122°24'7 6.6
2015-Feb-20 03:33N 37°54' W 122°22'1 1.1
2015-Feb-20 02:33N 37°54' W 122°23'0 0.1
2015-Feb-20 01:33N 37°55' W 122°23'0 0.0
2015-Feb-20 00:33N 37°55' W 122°23'0 0.0
2015-Feb-19 23:33N 37°55' W 122°23'0 0.0
2015-Feb-19 22:34N 37°55' W 122°23'0 0.0
2015-Feb-19 21:34N 37°55' W 122°23'3 2.9
2015-Feb-19 20:33N 37°57' W 122°26'9 8.8
2015-Feb-19 19:33N 38°03' W 122°18'2 1.8
2015-Feb-19 18:32N 38°03' W 122°16'8 8.2
2015-Feb-19 17:33N 37°60' W 122°25'10 9.7
2015-Feb-19 16:33N 37°50' W 122°22'3 2.9
2015-Feb-19 15:33N 37°49' W 122°19'0 0.0
2015-Feb-19 14:33N 37°49' W 122°19'0 0.0
2015-Feb-19 13:34N 37°49' W 122°19'0 0.0
2015-Feb-19 12:33N 37°49' W 122°19'0 0.0
2015-Feb-19 11:33N 37°49' W 122°19'0 0.0
2015-Feb-19 10:33N 37°49' W 122°19'0 0.0
2015-Feb-19 09:33N 37°49' W 122°19'0 0.0
2015-Feb-19 08:33N 37°49' W 122°19'0 0.0
2015-Feb-19 07:33N 37°49' W 122°19'0 0.0
2015-Feb-19 06:33N 37°49' W 122°19'0 0.0
2015-Feb-19 05:33N 37°49' W 122°19'0 0.0
2015-Feb-19 04:33N 37°49' W 122°19'0 0.0
2015-Feb-19 03:33N 37°49' W 122°19'0 0.0
2015-Feb-19 02:33N 37°49' W 122°19'0 0.0
2015-Feb-19 01:34N 37°49' W 122°19'0 0.0
2015-Feb-19 00:33N 37°49' W 122°19'0 0.0
2015-Feb-18 23:34N 37°49' W 122°19'0 0.0
2015-Feb-18 22:33N 37°49' W 122°19'0 0.0
2015-Feb-18 21:33N 37°49' W 122°19'0 0.0
2015-Feb-18 20:33N 37°49' W 122°19'0 0.0
2015-Feb-18 19:33N 37°49' W 122°19'0 0.0
2015-Feb-18 18:33N 37°49' W 122°19'0 0.0
2015-Feb-18 17:33N 37°49' W 122°19'0 0.0
2015-Feb-18 16:33N 37°49' W 122°19'0 0.0
2015-Feb-18 15:33N 37°49' W 122°19'0 0.0
2015-Feb-18 14:33N 37°49' W 122°19'0 0.0
2015-Feb-18 13:33N 37°49' W 122°19'0 0.0
2015-Feb-18 12:33N 37°49' W 122°19'0 0.0
2015-Feb-18 11:33N 37°49' W 122°19'0 0.0
2015-Feb-18 10:33N 37°49' W 122°19'0 0.0
2015-Feb-18 09:33N 37°49' W 122°19'0 0.0
2015-Feb-18 08:33N 37°49' W 122°19'0 0.0
2015-Feb-18 07:33N 37°49' W 122°19'0 0.0
2015-Feb-18 06:33N 37°49' W 122°19'0 0.0
2015-Feb-18 05:33N 37°49' W 122°19'1 0.7
2015-Feb-18 04:33N 37°49' W 122°19'1 0.7
2015-Feb-18 03:33N 37°49' W 122°19'0 0.0
2015-Feb-18 02:34N 37°49' W 122°19'0 0.0
2015-Feb-18 01:34N 37°49' W 122°19'0 0.0
2015-Feb-18 00:34N 37°49' W 122°19'0 0.0
2015-Feb-17 23:34N 37°49' W 122°19'0 0.0
2015-Feb-17 22:34N 37°49' W 122°19'0 0.0
2015-Feb-17 21:34N 37°49' W 122°19'2 1.8
2015-Feb-17 20:34N 37°48' W 122°21'3 2.6
2015-Feb-17 19:34N 37°48' W 122°17'2 1.0
2015-Feb-17 17:33N 37°49' W 122°19'0 0.0
2015-Feb-17 16:33N 37°49' W 122°19'0 0.0
2015-Feb-17 15:33N 37°49' W 122°19'0 0.0
2015-Feb-17 14:33N 37°49' W 122°19'  
Track history (hours):
 
Tides and Currents Weather Stations Pressure Air Temp Water Temp Dewpoint Dewpoint Depression Visibility Wind Speed Wind Dir Waves Ship Positions

Patriot

Owner: AMNAV Maritime Corporation, Oakland, CA. More information available from US FCC via Universal Licensing System and Coast Guard Vessel Documentation Center.

Last reported at 2015-Feb-27 14:33 UTC. Time now 2015-Feb-27 15:24 UTC.
Position N 37°49' W 122°19'.

Length 31 m; draft 4.6 m.

Type: Tug. MMSI: 366998680.

Date/timePositionNaut miles runAvg speedWind from/ knotsBaromVisibWave heightAir tempDewpointWater temp
2015-Feb-27 14:33N 37°49' W 122°19'0 0.0
2015-Feb-27 13:33N 37°49' W 122°19'3 2.8
2015-Feb-27 12:33N 37°48' W 122°21'3 2.8
2015-Feb-27 11:33N 37°49' W 122°19'0 0.0
2015-Feb-27 10:33N 37°49' W 122°19'0 0.0
2015-Feb-27 09:33N 37°49' W 122°19'0 0.0
2015-Feb-27 08:33N 37°49' W 122°19'0 0.0
2015-Feb-27 07:33N 37°49' W 122°19'2 1.9
2015-Feb-27 06:33N 37°49' W 122°21'6 6.2
2015-Feb-27 05:33N 37°55' W 122°22'0 0.2
2015-Feb-27 04:33N 37°55' W 122°22'1 1.4
2015-Feb-27 03:33N 37°54' W 122°23'1 1.4
2015-Feb-27 02:33N 37°55' W 122°22'1 0.9
2015-Feb-27 01:33N 37°54' W 122°22'3 2.7
2015-Feb-27 00:33N 37°53' W 122°25'6 6.1
2015-Feb-26 23:33N 37°49' W 122°19'1 0.5
2015-Feb-26 22:33N 37°49' W 122°19'0 0.0
2015-Feb-26 21:33N 37°49' W 122°19'0 0.0
2015-Feb-26 20:33N 37°49' W 122°19'0 0.0
2015-Feb-26 19:33N 37°49' W 122°19'0 0.0
2015-Feb-26 18:33N 37°49' W 122°19'0 0.0
2015-Feb-26 17:33N 37°49' W 122°19'0 0.0
2015-Feb-26 16:33N 37°49' W 122°19'0 0.0
2015-Feb-26 15:33N 37°49' W 122°19'0 0.4
2015-Feb-26 14:33N 37°49' W 122°19'2 2.0
2015-Feb-26 13:34N 37°48' W 122°17'4 4.2
2015-Feb-26 12:34N 37°47' W 122°23'3 3.4
2015-Feb-26 11:34N 37°49' W 122°19'0 0.4
2015-Feb-26 10:34N 37°49' W 122°19'0 0.0
2015-Feb-26 09:33N 37°49' W 122°19'0 0.0
2015-Feb-26 08:33N 37°49' W 122°19'0 0.0
2015-Feb-26 07:33N 37°49' W 122°19'0 0.0
2015-Feb-26 06:33N 37°49' W 122°19'0 0.0
2015-Feb-26 05:33N 37°49' W 122°19'0 0.0
2015-Feb-26 04:33N 37°49' W 122°19'0 0.3
2015-Feb-26 03:33N 37°49' W 122°19'6 6.0
2015-Feb-26 02:33N 37°54' W 122°23'0 0.3
2015-Feb-26 01:33N 37°54' W 122°22'1 0.8
2015-Feb-26 00:33N 37°54' W 122°23'0 0.0
2015-Feb-25 23:33N 37°55' W 122°23'3 3.4
2015-Feb-25 22:33N 37°51' W 122°23'5 5.2
2015-Feb-25 21:33N 37°48' W 122°18'1 0.7
2015-Feb-25 20:33N 37°48' W 122°19'2 1.6
2015-Feb-25 19:33N 37°49' W 122°19'0 0.0
2015-Feb-25 18:33N 37°49' W 122°19'0 0.0
2015-Feb-25 17:33N 37°49' W 122°19'0 0.0
2015-Feb-25 16:33N 37°49' W 122°19'0 0.0
2015-Feb-25 15:33N 37°49' W 122°19'0 0.2
2015-Feb-25 14:33N 37°49' W 122°19'1 1.4
2015-Feb-25 13:33N 37°49' W 122°20'1 1.3
2015-Feb-25 12:33N 37°49' W 122°19'0 0.3
2015-Feb-25 11:34N 37°49' W 122°19'0 0.0
2015-Feb-25 10:33N 37°49' W 122°19'0 0.0
2015-Feb-25 09:33N 37°49' W 122°19'0 0.0
2015-Feb-25 08:34N 37°49' W 122°19'0 0.0
2015-Feb-25 07:33N 37°49' W 122°19'0 0.0
2015-Feb-25 06:34N 37°49' W 122°19'0 0.0
2015-Feb-25 05:33N 37°49' W 122°19'0 0.0
2015-Feb-25 04:33N 37°49' W 122°19'0 0.0
2015-Feb-25 03:33N 37°49' W 122°19'0 0.0
2015-Feb-25 02:34N 37°49' W 122°19'0 0.0
2015-Feb-25 01:33N 37°49' W 122°19'0 0.0
2015-Feb-25 00:33N 37°49' W 122°19'0 0.0
2015-Feb-24 23:34N 37°49' W 122°19'2 1.8
2015-Feb-24 22:33N 37°48' W 122°20'2 2.0
2015-Feb-24 21:33N 37°48' W 122°18'2 2.5
2015-Feb-24 20:33N 37°48' W 122°21'2 2.2
2015-Feb-24 19:33N 37°49' W 122°19'0 0.0
2015-Feb-24 18:34N 37°49' W 122°19'0 0.0
2015-Feb-24 17:34N 37°49' W 122°19'0 0.0
2015-Feb-24 16:34N 37°49' W 122°19'0 0.0
2015-Feb-24 15:34N 37°49' W 122°19'0 0.0
2015-Feb-24 14:34N 37°49' W 122°19'0 0.0
2015-Feb-24 13:34N 37°49' W 122°19'0 0.0
2015-Feb-24 12:33N 37°49' W 122°19'0 0.0
2015-Feb-24 11:34N 37°49' W 122°19'0 0.0
2015-Feb-24 10:34N 37°49' W 122°19'0 0.0
2015-Feb-24 09:34N 37°49' W 122°19'0 0.0
2015-Feb-24 08:34N 37°49' W 122°19'0 0.0
2015-Feb-24 07:34N 37°49' W 122°19'0 0.0
2015-Feb-24 06:34N 37°49' W 122°19'0 0.0
2015-Feb-24 05:34N 37°49' W 122°19'0 0.0
2015-Feb-24 04:34N 37°49' W 122°19'0 0.0
2015-Feb-24 03:34N 37°49' W 122°19'0 0.0
2015-Feb-24 02:33N 37°49' W 122°19'0 0.0
2015-Feb-24 01:34N 37°49' W 122°19'0 0.0
2015-Feb-24 00:33N 37°49' W 122°19'0 0.0
2015-Feb-23 23:34N 37°49' W 122°19'0 0.0
2015-Feb-23 22:33N 37°49' W 122°19'7 6.9
2015-Feb-23 21:33N 37°54' W 122°25'3 2.5
2015-Feb-23 20:33N 37°55' W 122°22'1 0.6
2015-Feb-23 19:33N 37°54' W 122°22'3 2.8
2015-Feb-23 18:33N 37°54' W 122°25'2 1.7
2015-Feb-23 17:33N 37°54' W 122°23'2 2.3
2015-Feb-23 16:33N 37°56' W 122°26'10 9.8
2015-Feb-23 15:29N 38°03' W 122°16'  
2015-Feb-21 05:03N 38°02' W 122°08'13 8.4
2015-Feb-21 03:30N 38°02' W 121°52'2 1.8
2015-Feb-21 02:20N 38°03' W 121°54'11 5.7
2015-Feb-21 00:23N 38°02' W 122°08'0 0.0
2015-Feb-20 07:06N 38°02' W 122°08'4 2.7
2015-Feb-20 05:33N 38°04' W 122°13'9 8.7
2015-Feb-20 04:33N 38°01' W 122°24'7 6.6
2015-Feb-20 03:33N 37°54' W 122°22'1 1.1
2015-Feb-20 02:33N 37°54' W 122°23'0 0.1
2015-Feb-20 01:33N 37°55' W 122°23'0 0.0
2015-Feb-20 00:33N 37°55' W 122°23'0 0.0
2015-Feb-19 23:33N 37°55' W 122°23'0 0.0
2015-Feb-19 22:34N 37°55' W 122°23'0 0.0
2015-Feb-19 21:34N 37°55' W 122°23'3 2.9
2015-Feb-19 20:33N 37°57' W 122°26'9 8.8
2015-Feb-19 19:33N 38°03' W 122°18'2 1.8
2015-Feb-19 18:32N 38°03' W 122°16'8 8.2
2015-Feb-19 17:33N 37°60' W 122°25'10 9.7
2015-Feb-19 16:33N 37°50' W 122°22'3 2.9
2015-Feb-19 15:33N 37°49' W 122°19'0 0.0
2015-Feb-19 14:33N 37°49' W 122°19'0 0.0
2015-Feb-19 13:34N 37°49' W 122°19'0 0.0
2015-Feb-19 12:33N 37°49' W 122°19'0 0.0
2015-Feb-19 11:33N 37°49' W 122°19'0 0.0
2015-Feb-19 10:33N 37°49' W 122°19'0 0.0
2015-Feb-19 09:33N 37°49' W 122°19'0 0.0
2015-Feb-19 08:33N 37°49' W 122°19'0 0.0
2015-Feb-19 07:33N 37°49' W 122°19'0 0.0
2015-Feb-19 06:33N 37°49' W 122°19'0 0.0
2015-Feb-19 05:33N 37°49' W 122°19'0 0.0
2015-Feb-19 04:33N 37°49' W 122°19'0 0.0
2015-Feb-19 03:33N 37°49' W 122°19'0 0.0
2015-Feb-19 02:33N 37°49' W 122°19'0 0.0
2015-Feb-19 01:34N 37°49' W 122°19'0 0.0
2015-Feb-19 00:33N 37°49' W 122°19'0 0.0
2015-Feb-18 23:34N 37°49' W 122°19'0 0.0
2015-Feb-18 22:33N 37°49' W 122°19'0 0.0
2015-Feb-18 21:33N 37°49' W 122°19'0 0.0
2015-Feb-18 20:33N 37°49' W 122°19'0 0.0
2015-Feb-18 19:33N 37°49' W 122°19'0 0.0
2015-Feb-18 18:33N 37°49' W 122°19'0 0.0
2015-Feb-18 17:33N 37°49' W 122°19'0 0.0
2015-Feb-18 16:33N 37°49' W 122°19'0 0.0
2015-Feb-18 15:33N 37°49' W 122°19'0 0.0
2015-Feb-18 14:33N 37°49' W 122°19'0 0.0
2015-Feb-18 13:33N 37°49' W 122°19'0 0.0
2015-Feb-18 12:33N 37°49' W 122°19'0 0.0
2015-Feb-18 11:33N 37°49' W 122°19'0 0.0
2015-Feb-18 10:33N 37°49' W 122°19'0 0.0
2015-Feb-18 09:33N 37°49' W 122°19'0 0.0
2015-Feb-18 08:33N 37°49' W 122°19'0 0.0
2015-Feb-18 07:33N 37°49' W 122°19'0 0.0
2015-Feb-18 06:33N 37°49' W 122°19'0 0.0
2015-Feb-18 05:33N 37°49' W 122°19'1 0.7
2015-Feb-18 04:33N 37°49' W 122°19'1 0.7
2015-Feb-18 03:33N 37°49' W 122°19'0 0.0
2015-Feb-18 02:34N 37°49' W 122°19'0 0.0
2015-Feb-18 01:34N 37°49' W 122°19'0 0.0
2015-Feb-18 00:34N 37°49' W 122°19'0 0.0
2015-Feb-17 23:34N 37°49' W 122°19'0 0.0
2015-Feb-17 22:34N 37°49' W 122°19'0 0.0
2015-Feb-17 21:34N 37°49' W 122°19'2 1.8
2015-Feb-17 20:34N 37°48' W 122°21'3 2.6
2015-Feb-17 19:34N 37°48' W 122°17'2 1.0
2015-Feb-17 17:33N 37°49' W 122°19'0 0.0
2015-Feb-17 16:33N 37°49' W 122°19'0 0.0
2015-Feb-17 15:33N 37°49' W 122°19'0 0.0
2015-Feb-17 14:33N 37°49' W 122°19'  

Dump ship's entire track history